TimeCST,TemperatureF,Dew PointF,Humidity,Sea Level PressureIn,VisibilityMPH,Wind Direction,Wind SpeedMPH,Gust SpeedMPH,PrecipitationIn,Events,Conditions,WindDirDegrees,DateUTC
12:02 AM,24.8,21.2,86,29.88,0.8,East,18.4,-,0.00,Snow,Light Snow,100,2013-02-22 06:02:00
12:10 AM,24.8,21.2,86,29.88,1.0,East,19.6,26.5,0.00,Snow,Light Snow,100,2013-02-22 06:10:00
12:52 AM,24.1,21.9,91,29.90,1.0,East,18.4,-,0.00,Snow,Light Snow,90,2013-02-22 06:52:00
1:04 AM,24.8,21.2,86,29.87,2.0,East,17.3,-,0.00,Snow,Light Snow,100,2013-02-22 07:04:00
1:27 AM,24.8,21.2,86,29.86,2.5,East,17.3,-,0.00,Snow,Light Snow,100,2013-02-22 07:27:00
1:34 AM,24.8,21.2,86,29.86,4.0,East,17.3,-,0.00,Snow,Light Snow,90,2013-02-22 07:34:00
1:52 AM,25.0,21.9,88,29.88,6.0,East,16.1,-,0.00,,Overcast,90,2013-02-22 07:52:00
2:52 AM,25.0,21.9,88,29.86,6.0,East,13.8,-,N/A,,Overcast,100,2013-02-22 08:52:00
3:52 AM,25.0,21.9,88,29.83,5.0,East,15.0,-,N/A,,Overcast,100,2013-02-22 09:52:00
4:11 AM,24.8,21.2,86,29.79,5.0,East,13.8,-,N/A,,Overcast,100,2013-02-22 10:11:00
4:52 AM,25.0,23.0,92,29.81,4.0,ESE,11.5,-,N/A,,Overcast,110,2013-02-22 10:52:00
5:23 AM,24.8,23.0,93,29.78,2.5,East,11.5,-,N/A,,Overcast,100,2013-02-22 11:23:00
5:59 AM,24.8,23.0,93,29.78,1.8,East,10.4,-,0.00,Snow,Light Snow,100,2013-02-22 11:59:00
6:38 AM,24.8,24.8,100,29.77,1.5,East,11.5,-,0.00,Snow,Light Snow,90,2013-02-22 12:38:00
6:52 AM,25.0,23.0,92,29.80,1.2,East,11.5,-,0.00,Snow,Light Snow,90,2013-02-22 12:52:00
7:02 AM,24.8,24.8,100,29.77,0.5,East,11.5,-,0.00,Fog-Snow,Light Snow,100,2013-02-22 13:02:00
7:16 AM,24.8,24.8,100,29.78,0.5,East,11.5,-,0.01,Fog-Snow,Light Snow,100,2013-02-22 13:16:00
7:52 AM,26.1,24.1,92,29.81,0.5,East,9.2,-,0.01,Fog-Snow,Light Snow,100,2013-02-22 13:52:00
8:52 AM,26.1,24.1,92,29.82,0.8,ESE,6.9,-,0.01,Snow,Light Snow,110,2013-02-22 14:52:00
9:04 AM,26.6,24.8,93,29.79,1.0,ESE,5.8,-,0.00,Snow,Light Snow,110,2013-02-22 15:04:00
9:12 AM,26.6,24.8,93,29.79,1.2,ESE,5.8,-,0.00,Snow,Light Snow,120,2013-02-22 15:12:00
9:52 AM,27.0,26.1,96,29.83,1.2,SSE,3.5,-,0.00,Snow,Light Snow,150,2013-02-22 15:52:00
10:03 AM,28.4,26.6,93,29.80,1.5,Calm,Calm,-,0.00,Snow,Light Snow,0,2013-02-22 16:03:00
10:25 AM,28.4,26.6,93,29.80,2.0,SSE,3.5,-,0.00,,Overcast,160,2013-02-22 16:25:00
10:47 AM,30.2,26.6,86,29.80,3.0,SW,8.1,-,0.00,,Overcast,220,2013-02-22 16:47:00
10:52 AM,30.0,27.0,88,29.83,4.0,SSW,6.9,-,0.00,,Overcast,210,2013-02-22 16:52:00
11:24 AM,30.2,26.6,86,29.81,6.0,WSW,10.4,-,N/A,,Overcast,240,2013-02-22 17:24:00
11:52 AM,30.0,26.1,85,29.84,5.0,WSW,13.8,-,N/A,,Overcast,240,2013-02-22 17:52:00
12:52 PM,30.0,25.0,82,29.85,5.0,WSW,19.6,-,N/A,,Haze,250,2013-02-22 18:52:00
1:52 PM,28.9,24.1,82,29.87,4.0,West,16.1,-,N/A,,Haze,260,2013-02-22 19:52:00
2:05 PM,28.4,24.8,86,29.84,4.0,WSW,17.3,-,N/A,,Haze,250,2013-02-22 20:05:00
2:23 PM,30.2,24.8,80,29.84,4.0,WSW,16.1,-,N/A,,Haze,250,2013-02-22 20:23:00
2:52 PM,28.9,23.0,78,29.88,5.0,West,16.1,-,N/A,,Haze,260,2013-02-22 20:52:00
3:52 PM,28.9,23.0,78,29.89,4.0,WSW,15.0,-,N/A,,Haze,250,2013-02-22 21:52:00
4:52 PM,28.0,21.9,78,29.91,4.0,WSW,13.8,-,N/A,,Haze,250,2013-02-22 22:52:00
5:06 PM,28.4,21.2,74,29.88,2.0,WSW,12.7,-,0.00,Snow,Light Snow,250,2013-02-22 23:06:00
5:19 PM,28.4,21.2,74,29.89,1.2,WSW,16.1,-,0.00,Snow,Light Snow,250,2013-02-22 23:19:00
5:52 PM,27.0,23.0,85,29.93,1.2,WSW,15.0,-,0.00,Snow,Light Snow,250,2013-02-22 23:52:00
6:02 PM,26.6,23.0,86,29.90,2.5,WSW,15.0,-,0.00,Snow,Light Snow,250,2013-02-23 00:02:00
6:10 PM,26.6,23.0,86,29.91,1.8,WSW,15.0,-,0.00,Snow,Light Snow,250,2013-02-23 00:10:00
6:35 PM,26.6,24.8,93,29.91,2.0,West,13.8,-,0.00,Snow,Light Snow,260,2013-02-23 00:35:00
6:52 PM,27.0,23.0,85,29.94,3.0,West,13.8,-,0.00,Snow,Light Snow,260,2013-02-23 00:52:00
7:52 PM,26.1,21.9,84,29.96,6.0,West,18.4,-,0.00,,Overcast,260,2013-02-23 01:52:00
8:52 PM,25.0,19.9,81,29.97,7.0,WSW,15.0,-,N/A,,Mostly Cloudy,250,2013-02-23 02:52:00
9:23 PM,24.8,19.4,80,29.94,7.0,WSW,13.8,-,N/A,,Overcast,250,2013-02-23 03:23:00
9:52 PM,23.0,19.0,85,29.98,7.0,WSW,13.8,-,N/A,,Overcast,250,2013-02-23 03:52:00
10:52 PM,24.1,19.9,84,29.98,7.0,WSW,17.3,-,N/A,,Overcast,250,2013-02-23 04:52:00
11:52 PM,24.1,19.0,81,29.97,7.0,West,15.0,-,N/A,,Overcast,260,2013-02-23 05:52:00